Terminal Aerodrome Forecast
Issued by NWS Shreveport, LA

Home | Current Version | Previous Version | Text Only | Print | Product List | Glossary On
Versions: 1 2 3 4 5 6 7 8 9 10 11 12 13
000
FTUS44 KSHV 302356
TAFSHV
TAF
KSHV 302356Z 3100/3124 24007KT P6SM SCT080 BKN250
     FM310100 21004KT P6SM FEW080 BKN250
     FM310700 20004KT P6SM BKN150 BKN250
     FM311500 22005KT P6SM SCT050 BKN150 BKN250=

USA.gov is the U.S. government's official web portal to all federal, state and local government web resources and services.